sensor_id;sensor_type;location;lat;lon;timestamp;P1;durP1;ratioP1;P2;durP2;ratioP2
70450;SDS011;58869;51.982;4.450;2022-07-11T00:02:09;4.20;;;4.20;;
70450;SDS011;58869;51.982;4.450;2022-07-11T00:04:36;4.07;;;4.07;;
70450;SDS011;58869;51.982;4.450;2022-07-11T00:07:02;4.24;;;4.24;;
70450;SDS011;58869;51.982;4.450;2022-07-11T00:09:28;4.26;;;4.26;;
70450;SDS011;58869;51.982;4.450;2022-07-11T00:11:54;4.32;;;4.32;;
70450;SDS011;58869;51.982;4.450;2022-07-11T00:14:20;4.72;;;4.72;;
70450;SDS011;58869;51.982;4.450;2022-07-11T00:16:47;4.65;;;4.65;;
70450;SDS011;58869;51.982;4.450;2022-07-11T00:19:13;4.69;;;4.69;;
70450;SDS011;58869;51.982;4.450;2022-07-11T00:21:39;5.04;;;5.04;;
70450;SDS011;58869;51.982;4.450;2022-07-11T00:24:04;4.97;;;4.97;;
70450;SDS011;58869;51.982;4.450;2022-07-11T00:26:34;4.84;;;4.84;;
70450;SDS011;58869;51.982;4.450;2022-07-11T00:29:00;5.16;;;5.16;;
70450;SDS011;58869;51.982;4.450;2022-07-11T00:31:26;5.35;;;5.35;;
70450;SDS011;58869;51.982;4.450;2022-07-11T00:33:53;5.26;;;5.26;;
70450;SDS011;58869;51.982;4.450;2022-07-11T00:36:19;5.02;;;5.02;;
70450;SDS011;58869;51.982;4.450;2022-07-11T00:38:44;4.96;;;4.96;;
70450;SDS011;58869;51.982;4.450;2022-07-11T00:41:11;5.00;;;5.00;;
70450;SDS011;58869;51.982;4.450;2022-07-11T00:43:37;5.39;;;5.39;;
70450;SDS011;58869;51.982;4.450;2022-07-11T00:46:04;5.04;;;5.04;;
70450;SDS011;58869;51.982;4.450;2022-07-11T00:48:32;4.92;;;4.92;;
70450;SDS011;58869;51.982;4.450;2022-07-11T00:50:58;4.82;;;4.82;;
70450;SDS011;58869;51.982;4.450;2022-07-11T00:53:24;4.93;;;4.93;;
70450;SDS011;58869;51.982;4.450;2022-07-11T00:55:51;5.22;;;5.22;;
70450;SDS011;58869;51.982;4.450;2022-07-11T00:58:18;4.80;;;4.80;;
70450;SDS011;58869;51.982;4.450;2022-07-11T01:00:43;4.71;;;4.71;;
70450;SDS011;58869;51.982;4.450;2022-07-11T01:03:09;4.60;;;4.60;;
70450;SDS011;58869;51.982;4.450;2022-07-11T01:05:34;4.50;;;4.50;;
70450;SDS011;58869;51.982;4.450;2022-07-11T01:08:00;4.72;;;4.72;;
70450;SDS011;58869;51.982;4.450;2022-07-11T01:10:26;4.54;;;4.54;;
70450;SDS011;58869;51.982;4.450;2022-07-11T01:12:52;4.71;;;4.71;;
70450;SDS011;58869;51.982;4.450;2022-07-11T01:15:18;4.13;;;4.13;;
70450;SDS011;58869;51.982;4.450;2022-07-11T01:17:43;3.73;;;3.73;;
70450;SDS011;58869;51.982;4.450;2022-07-11T01:20:09;3.47;;;3.47;;
70450;SDS011;58869;51.982;4.450;2022-07-11T01:22:36;3.60;;;3.60;;
70450;SDS011;58869;51.982;4.450;2022-07-11T01:25:09;3.36;;;3.36;;
70450;SDS011;58869;51.982;4.450;2022-07-11T01:27:35;3.52;;;3.52;;
70450;SDS011;58869;51.982;4.450;2022-07-11T01:30:00;3.17;;;3.17;;
70450;SDS011;58869;51.982;4.450;2022-07-11T01:32:26;3.07;;;3.07;;
70450;SDS011;58869;51.982;4.450;2022-07-11T01:34:52;2.87;;;2.87;;
70450;SDS011;58869;51.982;4.450;2022-07-11T01:37:18;3.03;;;3.03;;
70450;SDS011;58869;51.982;4.450;2022-07-11T01:39:43;3.17;;;3.17;;
70450;SDS011;58869;51.982;4.450;2022-07-11T01:42:09;3.23;;;3.23;;
70450;SDS011;58869;51.982;4.450;2022-07-11T01:44:34;3.12;;;3.12;;
70450;SDS011;58869;51.982;4.450;2022-07-11T01:47:00;3.00;;;3.00;;
70450;SDS011;58869;51.982;4.450;2022-07-11T01:49:25;3.56;;;3.46;;
70450;SDS011;58869;51.982;4.450;2022-07-11T01:51:55;3.05;;;3.05;;
70450;SDS011;58869;51.982;4.450;2022-07-11T01:54:21;3.29;;;3.29;;
70450;SDS011;58869;51.982;4.450;2022-07-11T01:56:46;3.13;;;3.13;;
70450;SDS011;58869;51.982;4.450;2022-07-11T01:59:12;3.18;;;3.18;;
70450;SDS011;58869;51.982;4.450;2022-07-11T02:01:38;3.25;;;3.25;;
70450;SDS011;58869;51.982;4.450;2022-07-11T02:04:04;2.99;;;2.99;;
70450;SDS011;58869;51.982;4.450;2022-07-11T02:06:31;3.02;;;3.02;;
70450;SDS011;58869;51.982;4.450;2022-07-11T02:08:58;2.82;;;2.82;;
70450;SDS011;58869;51.982;4.450;2022-07-11T02:11:24;2.68;;;2.68;;
70450;SDS011;58869;51.982;4.450;2022-07-11T02:13:50;2.83;;;2.83;;
70450;SDS011;58869;51.982;4.450;2022-07-11T02:16:15;3.13;;;3.13;;
70450;SDS011;58869;51.982;4.450;2022-07-11T02:18:42;2.69;;;2.69;;
70450;SDS011;58869;51.982;4.450;2022-07-11T02:21:07;2.69;;;2.68;;
70450;SDS011;58869;51.982;4.450;2022-07-11T02:23:34;2.55;;;2.52;;
70450;SDS011;58869;51.982;4.450;2022-07-11T02:26:00;2.48;;;2.48;;
70450;SDS011;58869;51.982;4.450;2022-07-11T02:28:25;2.19;;;2.19;;
70450;SDS011;58869;51.982;4.450;2022-07-11T02:30:52;2.46;;;2.46;;
70450;SDS011;58869;51.982;4.450;2022-07-11T02:33:17;2.49;;;2.49;;
70450;SDS011;58869;51.982;4.450;2022-07-11T02:35:46;2.17;;;2.17;;
70450;SDS011;58869;51.982;4.450;2022-07-11T02:38:11;2.13;;;2.13;;
70450;SDS011;58869;51.982;4.450;2022-07-11T02:40:42;2.34;;;2.34;;
70450;SDS011;58869;51.982;4.450;2022-07-11T02:43:07;2.23;;;2.23;;
70450;SDS011;58869;51.982;4.450;2022-07-11T02:45:33;2.13;;;2.13;;
70450;SDS011;58869;51.982;4.450;2022-07-11T02:47:58;2.16;;;2.16;;
70450;SDS011;58869;51.982;4.450;2022-07-11T02:50:24;2.05;;;2.05;;
70450;SDS011;58869;51.982;4.450;2022-07-11T02:52:49;2.37;;;2.37;;
70450;SDS011;58869;51.982;4.450;2022-07-11T02:55:17;2.21;;;2.21;;
70450;SDS011;58869;51.982;4.450;2022-07-11T02:57:43;2.05;;;2.05;;
70450;SDS011;58869;51.982;4.450;2022-07-11T03:00:13;1.61;;;1.61;;
70450;SDS011;58869;51.982;4.450;2022-07-11T03:02:41;1.46;;;1.46;;
70450;SDS011;58869;51.982;4.450;2022-07-11T03:05:09;1.67;;;1.67;;
70450;SDS011;58869;51.982;4.450;2022-07-11T03:07:34;1.83;;;1.83;;
70450;SDS011;58869;51.982;4.450;2022-07-11T03:10:00;1.76;;;1.76;;
70450;SDS011;58869;51.982;4.450;2022-07-11T03:12:25;1.86;;;1.86;;
70450;SDS011;58869;51.982;4.450;2022-07-11T03:14:51;1.90;;;1.90;;
70450;SDS011;58869;51.982;4.450;2022-07-11T03:17:16;1.88;;;1.88;;
70450;SDS011;58869;51.982;4.450;2022-07-11T03:19:43;1.80;;;1.80;;
70450;SDS011;58869;51.982;4.450;2022-07-11T03:22:08;1.65;;;1.65;;
70450;SDS011;58869;51.982;4.450;2022-07-11T03:24:34;1.87;;;1.87;;
70450;SDS011;58869;51.982;4.450;2022-07-11T03:27:01;1.73;;;1.73;;
70450;SDS011;58869;51.982;4.450;2022-07-11T03:29:26;1.86;;;1.86;;
70450;SDS011;58869;51.982;4.450;2022-07-11T03:31:52;1.85;;;1.85;;
70450;SDS011;58869;51.982;4.450;2022-07-11T03:34:17;1.72;;;1.72;;
70450;SDS011;58869;51.982;4.450;2022-07-11T03:36:44;1.74;;;1.74;;
70450;SDS011;58869;51.982;4.450;2022-07-11T03:39:12;1.70;;;1.70;;
70450;SDS011;58869;51.982;4.450;2022-07-11T03:41:38;1.70;;;1.70;;
70450;SDS011;58869;51.982;4.450;2022-07-11T03:44:04;1.78;;;1.78;;
70450;SDS011;58869;51.982;4.450;2022-07-11T03:46:29;1.65;;;1.65;;
70450;SDS011;58869;51.982;4.450;2022-07-11T03:48:55;1.96;;;1.96;;
70450;SDS011;58869;51.982;4.450;2022-07-11T03:51:20;1.63;;;1.63;;
70450;SDS011;58869;51.982;4.450;2022-07-11T03:53:46;1.59;;;1.59;;
70450;SDS011;58869;51.982;4.450;2022-07-11T03:56:11;1.46;;;1.46;;
70450;SDS011;58869;51.982;4.450;2022-07-11T03:58:38;1.41;;;1.41;;
70450;SDS011;58869;51.982;4.450;2022-07-11T04:01:03;1.46;;;1.46;;
70450;SDS011;58869;51.982;4.450;2022-07-11T04:03:29;1.38;;;1.38;;
70450;SDS011;58869;51.982;4.450;2022-07-11T04:05:54;1.27;;;1.27;;
70450;SDS011;58869;51.982;4.450;2022-07-11T04:08:21;1.20;;;1.20;;
70450;SDS011;58869;51.982;4.450;2022-07-11T04:10:48;0.93;;;0.93;;
70450;SDS011;58869;51.982;4.450;2022-07-11T04:13:13;1.14;;;1.14;;
70450;SDS011;58869;51.982;4.450;2022-07-11T04:15:39;1.02;;;1.02;;
70450;SDS011;58869;51.982;4.450;2022-07-11T04:18:04;0.95;;;0.95;;
70450;SDS011;58869;51.982;4.450;2022-07-11T04:20:30;1.03;;;1.03;;
70450;SDS011;58869;51.982;4.450;2022-07-11T04:22:55;1.02;;;1.02;;
70450;SDS011;58869;51.982;4.450;2022-07-11T04:25:21;0.95;;;0.95;;
70450;SDS011;58869;51.982;4.450;2022-07-11T04:27:47;1.12;;;1.12;;
70450;SDS011;58869;51.982;4.450;2022-07-11T04:30:12;1.15;;;1.15;;
70450;SDS011;58869;51.982;4.450;2022-07-11T04:32:38;1.15;;;1.15;;
70450;SDS011;58869;51.982;4.450;2022-07-11T04:35:03;1.26;;;1.26;;
70450;SDS011;58869;51.982;4.450;2022-07-11T04:37:29;1.29;;;1.29;;
70450;SDS011;58869;51.982;4.450;2022-07-11T04:39:54;1.32;;;1.32;;
70450;SDS011;58869;51.982;4.450;2022-07-11T04:42:20;1.42;;;1.42;;
70450;SDS011;58869;51.982;4.450;2022-07-11T04:44:45;1.64;;;1.64;;
70450;SDS011;58869;51.982;4.450;2022-07-11T04:47:11;1.63;;;1.63;;
70450;SDS011;58869;51.982;4.450;2022-07-11T04:49:38;1.59;;;1.59;;
70450;SDS011;58869;51.982;4.450;2022-07-11T04:52:04;1.62;;;1.62;;
70450;SDS011;58869;51.982;4.450;2022-07-11T04:54:30;1.75;;;1.75;;
70450;SDS011;58869;51.982;4.450;2022-07-11T04:56:55;1.72;;;1.72;;
70450;SDS011;58869;51.982;4.450;2022-07-11T04:59:21;1.61;;;1.61;;
70450;SDS011;58869;51.982;4.450;2022-07-11T05:01:48;1.35;;;1.35;;
70450;SDS011;58869;51.982;4.450;2022-07-11T05:04:14;1.53;;;1.53;;
70450;SDS011;58869;51.982;4.450;2022-07-11T05:06:41;1.44;;;1.44;;
70450;SDS011;58869;51.982;4.450;2022-07-11T05:09:12;1.69;;;1.69;;
70450;SDS011;58869;51.982;4.450;2022-07-11T05:11:38;1.78;;;1.78;;
70450;SDS011;58869;51.982;4.450;2022-07-11T05:14:04;1.70;;;1.70;;
70450;SDS011;58869;51.982;4.450;2022-07-11T05:16:31;1.45;;;1.45;;
70450;SDS011;58869;51.982;4.450;2022-07-11T05:18:56;1.35;;;1.35;;
70450;SDS011;58869;51.982;4.450;2022-07-11T05:21:21;1.22;;;1.22;;
70450;SDS011;58869;51.982;4.450;2022-07-11T05:23:49;1.55;;;1.55;;
70450;SDS011;58869;51.982;4.450;2022-07-11T05:26:14;1.84;;;1.84;;
70450;SDS011;58869;51.982;4.450;2022-07-11T05:28:41;1.71;;;1.71;;
70450;SDS011;58869;51.982;4.450;2022-07-11T05:31:07;1.83;;;1.83;;
70450;SDS011;58869;51.982;4.450;2022-07-11T05:33:32;2.01;;;2.01;;
70450;SDS011;58869;51.982;4.450;2022-07-11T05:36:00;1.82;;;1.82;;
70450;SDS011;58869;51.982;4.450;2022-07-11T05:38:25;2.02;;;2.02;;
70450;SDS011;58869;51.982;4.450;2022-07-11T05:40:52;2.13;;;2.13;;
70450;SDS011;58869;51.982;4.450;2022-07-11T05:43:18;1.94;;;1.94;;
70450;SDS011;58869;51.982;4.450;2022-07-11T05:45:44;2.10;;;2.10;;
70450;SDS011;58869;51.982;4.450;2022-07-11T05:48:09;1.93;;;1.93;;
70450;SDS011;58869;51.982;4.450;2022-07-11T05:50:35;1.69;;;1.69;;
70450;SDS011;58869;51.982;4.450;2022-07-11T05:53:01;1.67;;;1.67;;
70450;SDS011;58869;51.982;4.450;2022-07-11T05:55:27;1.58;;;1.58;;
70450;SDS011;58869;51.982;4.450;2022-07-11T05:57:53;1.75;;;1.75;;
70450;SDS011;58869;51.982;4.450;2022-07-11T06:00:19;1.90;;;1.90;;
70450;SDS011;58869;51.982;4.450;2022-07-11T06:02:46;1.91;;;1.91;;
70450;SDS011;58869;51.982;4.450;2022-07-11T06:05:13;1.99;;;1.99;;
70450;SDS011;58869;51.982;4.450;2022-07-11T06:07:38;1.94;;;1.94;;
70450;SDS011;58869;51.982;4.450;2022-07-11T06:10:23;1.79;;;1.79;;
70450;SDS011;58869;51.982;4.450;2022-07-11T06:12:50;2.05;;;2.05;;
70450;SDS011;58869;51.982;4.450;2022-07-11T06:15:15;1.86;;;1.86;;
70450;SDS011;58869;51.982;4.450;2022-07-11T06:17:40;1.53;;;1.53;;
70450;SDS011;58869;51.982;4.450;2022-07-11T06:20:06;1.55;;;1.55;;
70450;SDS011;58869;51.982;4.450;2022-07-11T06:22:33;1.74;;;1.74;;
70450;SDS011;58869;51.982;4.450;2022-07-11T06:24:58;1.84;;;1.84;;
70450;SDS011;58869;51.982;4.450;2022-07-11T06:27:24;1.80;;;1.80;;
70450;SDS011;58869;51.982;4.450;2022-07-11T06:29:49;1.74;;;1.74;;
70450;SDS011;58869;51.982;4.450;2022-07-11T06:32:15;1.99;;;1.99;;
70450;SDS011;58869;51.982;4.450;2022-07-11T06:34:40;2.85;;;2.85;;
70450;SDS011;58869;51.982;4.450;2022-07-11T06:37:07;3.34;;;3.34;;
70450;SDS011;58869;51.982;4.450;2022-07-11T06:39:35;2.41;;;2.41;;
70450;SDS011;58869;51.982;4.450;2022-07-11T06:42:01;1.94;;;1.94;;
70450;SDS011;58869;51.982;4.450;2022-07-11T06:44:26;2.25;;;2.25;;
70450;SDS011;58869;51.982;4.450;2022-07-11T06:46:52;2.39;;;2.39;;
70450;SDS011;58869;51.982;4.450;2022-07-11T06:49:17;2.48;;;2.48;;
70450;SDS011;58869;51.982;4.450;2022-07-11T06:51:43;2.30;;;2.30;;
70450;SDS011;58869;51.982;4.450;2022-07-11T06:54:08;2.32;;;2.32;;
70450;SDS011;58869;51.982;4.450;2022-07-11T06:56:34;2.22;;;2.22;;
70450;SDS011;58869;51.982;4.450;2022-07-11T06:58:59;2.46;;;2.46;;
70450;SDS011;58869;51.982;4.450;2022-07-11T07:01:25;2.19;;;2.19;;
70450;SDS011;58869;51.982;4.450;2022-07-11T07:03:52;2.12;;;2.12;;
70450;SDS011;58869;51.982;4.450;2022-07-11T07:06:17;2.31;;;2.31;;
70450;SDS011;58869;51.982;4.450;2022-07-11T07:08:43;2.12;;;2.12;;
70450;SDS011;58869;51.982;4.450;2022-07-11T07:11:08;1.81;;;1.81;;
70450;SDS011;58869;51.982;4.450;2022-07-11T07:13:34;1.87;;;1.87;;
70450;SDS011;58869;51.982;4.450;2022-07-11T07:15:59;1.74;;;1.74;;
70450;SDS011;58869;51.982;4.450;2022-07-11T07:18:25;1.82;;;1.82;;
70450;SDS011;58869;51.982;4.450;2022-07-11T07:20:50;1.84;;;1.84;;
70450;SDS011;58869;51.982;4.450;2022-07-11T07:23:16;1.59;;;1.59;;
70450;SDS011;58869;51.982;4.450;2022-07-11T07:25:43;1.55;;;1.55;;
70450;SDS011;58869;51.982;4.450;2022-07-11T07:28:08;1.32;;;1.32;;
70450;SDS011;58869;51.982;4.450;2022-07-11T07:30:34;1.33;;;1.33;;
70450;SDS011;58869;51.982;4.450;2022-07-11T07:32:59;1.41;;;1.41;;
70450;SDS011;58869;51.982;4.450;2022-07-11T07:35:28;1.40;;;1.40;;
70450;SDS011;58869;51.982;4.450;2022-07-11T07:37:54;1.42;;;1.42;;
70450;SDS011;58869;51.982;4.450;2022-07-11T07:40:20;1.42;;;1.42;;
70450;SDS011;58869;51.982;4.450;2022-07-11T07:42:46;1.49;;;1.49;;
70450;SDS011;58869;51.982;4.450;2022-07-11T07:45:12;1.63;;;1.63;;
70450;SDS011;58869;51.982;4.450;2022-07-11T07:47:37;1.63;;;1.63;;
70450;SDS011;58869;51.982;4.450;2022-07-11T07:50:04;1.67;;;1.67;;
70450;SDS011;58869;51.982;4.450;2022-07-11T07:52:32;1.77;;;1.77;;
70450;SDS011;58869;51.982;4.450;2022-07-11T07:54:58;1.72;;;1.72;;
70450;SDS011;58869;51.982;4.450;2022-07-11T07:57:23;1.93;;;1.93;;
70450;SDS011;58869;51.982;4.450;2022-07-11T07:59:49;2.00;;;2.00;;
70450;SDS011;58869;51.982;4.450;2022-07-11T08:02:16;1.81;;;1.81;;
70450;SDS011;58869;51.982;4.450;2022-07-11T08:04:42;1.74;;;1.74;;
70450;SDS011;58869;51.982;4.450;2022-07-11T08:07:08;1.63;;;1.63;;
70450;SDS011;58869;51.982;4.450;2022-07-11T08:09:33;1.77;;;1.77;;
70450;SDS011;58869;51.982;4.450;2022-07-11T08:11:59;1.62;;;1.62;;
70450;SDS011;58869;51.982;4.450;2022-07-11T08:14:24;1.72;;;1.72;;
70450;SDS011;58869;51.982;4.450;2022-07-11T08:16:50;1.67;;;1.67;;
70450;SDS011;58869;51.982;4.450;2022-07-11T08:19:16;1.93;;;1.93;;
70450;SDS011;58869;51.982;4.450;2022-07-11T08:21:41;1.84;;;1.84;;
70450;SDS011;58869;51.982;4.450;2022-07-11T08:24:07;1.89;;;1.89;;
70450;SDS011;58869;51.982;4.450;2022-07-11T08:26:35;1.69;;;1.69;;
70450;SDS011;58869;51.982;4.450;2022-07-11T08:29:01;1.72;;;1.72;;
70450;SDS011;58869;51.982;4.450;2022-07-11T08:31:27;1.79;;;1.79;;
70450;SDS011;58869;51.982;4.450;2022-07-11T08:33:52;1.64;;;1.64;;
70450;SDS011;58869;51.982;4.450;2022-07-11T08:36:18;1.60;;;1.60;;
70450;SDS011;58869;51.982;4.450;2022-07-11T08:38:44;1.89;;;1.89;;
70450;SDS011;58869;51.982;4.450;2022-07-11T08:41:12;1.99;;;1.99;;
70450;SDS011;58869;51.982;4.450;2022-07-11T08:43:40;1.99;;;1.99;;
70450;SDS011;58869;51.982;4.450;2022-07-11T08:46:10;1.71;;;1.71;;
70450;SDS011;58869;51.982;4.450;2022-07-11T08:48:37;1.68;;;1.68;;
70450;SDS011;58869;51.982;4.450;2022-07-11T08:51:05;1.68;;;1.68;;
70450;SDS011;58869;51.982;4.450;2022-07-11T08:53:31;1.75;;;1.75;;
70450;SDS011;58869;51.982;4.450;2022-07-11T08:55:57;2.04;;;2.04;;
70450;SDS011;58869;51.982;4.450;2022-07-11T08:58:23;2.01;;;2.01;;
70450;SDS011;58869;51.982;4.450;2022-07-11T09:00:49;1.92;;;1.92;;
70450;SDS011;58869;51.982;4.450;2022-07-11T09:03:15;1.77;;;1.77;;
70450;SDS011;58869;51.982;4.450;2022-07-11T09:05:43;1.67;;;1.67;;
70450;SDS011;58869;51.982;4.450;2022-07-11T09:08:09;1.37;;;1.37;;
70450;SDS011;58869;51.982;4.450;2022-07-11T09:10:37;1.47;;;1.47;;
70450;SDS011;58869;51.982;4.450;2022-07-11T09:13:07;1.57;;;1.57;;
70450;SDS011;58869;51.982;4.450;2022-07-11T09:18:02;1.46;;;1.46;;
70450;SDS011;58869;51.982;4.450;2022-07-11T09:20:37;1.38;;;1.38;;
70450;SDS011;58869;51.982;4.450;2022-07-11T09:23:37;1.39;;;1.39;;
70450;SDS011;58869;51.982;4.450;2022-07-11T09:26:21;1.63;;;1.63;;
70450;SDS011;58869;51.982;4.450;2022-07-11T09:29:03;1.65;;;1.65;;
70450;SDS011;58869;51.982;4.450;2022-07-11T09:31:34;1.59;;;1.59;;
70450;SDS011;58869;51.982;4.450;2022-07-11T09:34:10;1.75;;;1.75;;
70450;SDS011;58869;51.982;4.450;2022-07-11T09:36:44;1.38;;;1.38;;
70450;SDS011;58869;51.982;4.450;2022-07-11T09:39:19;1.64;;;1.64;;
70450;SDS011;58869;51.982;4.450;2022-07-11T09:41:46;1.50;;;1.50;;
70450;SDS011;58869;51.982;4.450;2022-07-11T09:44:17;1.22;;;1.22;;
70450;SDS011;58869;51.982;4.450;2022-07-11T09:46:45;1.19;;;1.19;;
70450;SDS011;58869;51.982;4.450;2022-07-11T09:49:16;1.24;;;1.24;;
70450;SDS011;58869;51.982;4.450;2022-07-11T09:51:43;1.04;;;1.04;;
70450;SDS011;58869;51.982;4.450;2022-07-11T09:54:09;0.90;;;0.90;;
70450;SDS011;58869;51.982;4.450;2022-07-11T09:56:42;1.10;;;1.10;;
70450;SDS011;58869;51.982;4.450;2022-07-11T09:59:10;1.25;;;1.25;;
70450;SDS011;58869;51.982;4.450;2022-07-11T10:01:38;1.33;;;1.33;;
70450;SDS011;58869;51.982;4.450;2022-07-11T10:04:05;1.26;;;1.26;;
70450;SDS011;58869;51.982;4.450;2022-07-11T10:06:33;1.37;;;1.37;;
70450;SDS011;58869;51.982;4.450;2022-07-11T10:09:00;1.44;;;1.44;;
70450;SDS011;58869;51.982;4.450;2022-07-11T10:11:25;1.44;;;1.44;;
70450;SDS011;58869;51.982;4.450;2022-07-11T10:13:51;1.52;;;1.52;;
70450;SDS011;58869;51.982;4.450;2022-07-11T10:16:21;1.47;;;1.47;;
70450;SDS011;58869;51.982;4.450;2022-07-11T10:19:11;1.69;;;1.69;;
70450;SDS011;58869;51.982;4.450;2022-07-11T10:22:03;1.79;;;1.79;;
70450;SDS011;58869;51.982;4.450;2022-07-11T10:24:47;1.79;;;1.79;;
70450;SDS011;58869;51.982;4.450;2022-07-11T10:30:05;1.68;;;1.68;;
70450;SDS011;58869;51.982;4.450;2022-07-11T10:32:31;1.86;;;1.86;;
70450;SDS011;58869;51.982;4.450;2022-07-11T10:35:06;2.03;;;2.03;;
70450;SDS011;58869;51.982;4.450;2022-07-11T10:37:45;1.75;;;1.75;;
70450;SDS011;58869;51.982;4.450;2022-07-11T10:40:20;1.52;;;1.52;;
70450;SDS011;58869;51.982;4.450;2022-07-11T10:43:15;1.62;;;1.62;;
70450;SDS011;58869;51.982;4.450;2022-07-11T10:48:27;1.42;;;1.42;;
70450;SDS011;58869;51.982;4.450;2022-07-11T10:51:04;1.57;;;1.57;;
70450;SDS011;58869;51.982;4.450;2022-07-11T10:53:39;1.55;;;1.55;;
70450;SDS011;58869;51.982;4.450;2022-07-11T10:56:14;1.78;;;1.78;;
70450;SDS011;58869;51.982;4.450;2022-07-11T10:58:45;1.69;;;1.69;;
70450;SDS011;58869;51.982;4.450;2022-07-11T11:02:03;1.41;;;1.41;;
70450;SDS011;58869;51.982;4.450;2022-07-11T11:09:55;1.99;;;1.99;;
70450;SDS011;58869;51.982;4.450;2022-07-11T11:12:59;2.07;;;2.07;;
70450;SDS011;58869;51.982;4.450;2022-07-11T11:24:13;3.28;;;3.28;;
70450;SDS011;58869;51.982;4.450;2022-07-11T11:26:26;3.01;;;3.01;;
70450;SDS011;58869;51.982;4.450;2022-07-11T11:29:10;3.19;;;3.19;;
70450;SDS011;58869;51.982;4.450;2022-07-11T11:31:36;3.38;;;3.38;;
70450;SDS011;58869;51.982;4.450;2022-07-11T11:34:04;3.36;;;3.36;;
70450;SDS011;58869;51.982;4.450;2022-07-11T11:36:30;3.70;;;3.70;;
70450;SDS011;58869;51.982;4.450;2022-07-11T11:38:56;3.61;;;3.61;;
70450;SDS011;58869;51.982;4.450;2022-07-11T11:41:23;3.23;;;3.23;;
70450;SDS011;58869;51.982;4.450;2022-07-11T11:43:51;3.12;;;3.12;;
70450;SDS011;58869;51.982;4.450;2022-07-11T11:46:24;2.62;;;2.62;;
70450;SDS011;58869;51.982;4.450;2022-07-11T11:48:55;2.71;;;2.71;;
70450;SDS011;58869;51.982;4.450;2022-07-11T11:51:23;2.49;;;2.49;;
70450;SDS011;58869;51.982;4.450;2022-07-11T11:53:51;2.76;;;2.76;;
70450;SDS011;58869;51.982;4.450;2022-07-11T11:56:22;2.59;;;2.59;;
70450;SDS011;58869;51.982;4.450;2022-07-11T11:59:07;2.32;;;2.32;;
70450;SDS011;58869;51.982;4.450;2022-07-11T12:01:35;2.27;;;2.27;;
70450;SDS011;58869;51.982;4.450;2022-07-11T12:04:03;2.42;;;2.42;;
70450;SDS011;58869;51.982;4.450;2022-07-11T12:06:34;2.32;;;2.32;;
70450;SDS011;58869;51.982;4.450;2022-07-11T12:09:03;2.23;;;2.23;;
70450;SDS011;58869;51.982;4.450;2022-07-11T12:11:36;2.24;;;2.24;;
70450;SDS011;58869;51.982;4.450;2022-07-11T12:14:03;2.64;;;2.64;;
70450;SDS011;58869;51.982;4.450;2022-07-11T12:16:30;2.16;;;2.16;;
70450;SDS011;58869;51.982;4.450;2022-07-11T12:21:39;2.99;;;2.99;;
70450;SDS011;58869;51.982;4.450;2022-07-11T12:24:08;2.98;;;2.98;;
70450;SDS011;58869;51.982;4.450;2022-07-11T12:26:41;2.88;;;2.88;;
70450;SDS011;58869;51.982;4.450;2022-07-11T12:31:43;2.57;;;2.57;;
70450;SDS011;58869;51.982;4.450;2022-07-11T12:34:09;2.25;;;2.25;;
70450;SDS011;58869;51.982;4.450;2022-07-11T12:36:36;2.38;;;2.38;;
70450;SDS011;58869;51.982;4.450;2022-07-11T12:39:01;1.97;;;1.97;;
70450;SDS011;58869;51.982;4.450;2022-07-11T12:41:32;1.95;;;1.95;;
70450;SDS011;58869;51.982;4.450;2022-07-11T12:43:58;1.77;;;1.77;;
70450;SDS011;58869;51.982;4.450;2022-07-11T12:46:43;1.98;;;1.98;;
70450;SDS011;58869;51.982;4.450;2022-07-11T12:49:11;2.10;;;2.10;;
70450;SDS011;58869;51.982;4.450;2022-07-11T12:51:38;1.87;;;1.87;;
70450;SDS011;58869;51.982;4.450;2022-07-11T12:54:09;1.94;;;1.94;;
70450;SDS011;58869;51.982;4.450;2022-07-11T12:56:37;1.71;;;1.71;;
70450;SDS011;58869;51.982;4.450;2022-07-11T12:59:04;2.00;;;2.00;;
70450;SDS011;58869;51.982;4.450;2022-07-11T13:01:30;2.05;;;2.05;;
70450;SDS011;58869;51.982;4.450;2022-07-11T13:03:57;1.57;;;1.57;;
70450;SDS011;58869;51.982;4.450;2022-07-11T13:06:23;1.84;;;1.84;;
70450;SDS011;58869;51.982;4.450;2022-07-11T13:09:08;1.80;;;1.80;;
70450;SDS011;58869;51.982;4.450;2022-07-11T13:11:34;1.76;;;1.76;;
70450;SDS011;58869;51.982;4.450;2022-07-11T13:14:00;1.49;;;1.49;;
70450;SDS011;58869;51.982;4.450;2022-07-11T13:16:26;1.57;;;1.57;;
70450;SDS011;58869;51.982;4.450;2022-07-11T13:18:51;1.71;;;1.71;;
70450;SDS011;58869;51.982;4.450;2022-07-11T13:21:17;1.95;;;1.95;;
70450;SDS011;58869;51.982;4.450;2022-07-11T13:23:43;1.81;;;1.81;;
70450;SDS011;58869;51.982;4.450;2022-07-11T13:26:09;1.93;;;1.93;;
70450;SDS011;58869;51.982;4.450;2022-07-11T13:28:35;2.21;;;2.21;;
70450;SDS011;58869;51.982;4.450;2022-07-11T13:31:01;2.10;;;2.10;;
70450;SDS011;58869;51.982;4.450;2022-07-11T13:33:30;2.06;;;2.06;;
70450;SDS011;58869;51.982;4.450;2022-07-11T13:35:56;1.90;;;1.90;;
70450;SDS011;58869;51.982;4.450;2022-07-11T13:38:21;2.20;;;2.20;;
70450;SDS011;58869;51.982;4.450;2022-07-11T13:40:47;2.30;;;2.30;;
70450;SDS011;58869;51.982;4.450;2022-07-11T13:43:13;2.09;;;2.09;;
70450;SDS011;58869;51.982;4.450;2022-07-11T13:45:39;1.91;;;1.91;;
70450;SDS011;58869;51.982;4.450;2022-07-11T13:48:05;1.82;;;1.82;;
70450;SDS011;58869;51.982;4.450;2022-07-11T13:50:31;2.06;;;2.06;;
70450;SDS011;58869;51.982;4.450;2022-07-11T13:52:57;1.90;;;1.90;;
70450;SDS011;58869;51.982;4.450;2022-07-11T13:55:23;2.08;;;2.08;;
70450;SDS011;58869;51.982;4.450;2022-07-11T13:57:50;1.84;;;1.84;;
70450;SDS011;58869;51.982;4.450;2022-07-11T14:00:18;1.98;;;1.98;;
70450;SDS011;58869;51.982;4.450;2022-07-11T14:02:44;1.76;;;1.76;;
70450;SDS011;58869;51.982;4.450;2022-07-11T14:05:10;1.71;;;1.71;;
70450;SDS011;58869;51.982;4.450;2022-07-11T14:07:36;1.72;;;1.72;;
70450;SDS011;58869;51.982;4.450;2022-07-11T14:10:02;1.62;;;1.62;;
70450;SDS011;58869;51.982;4.450;2022-07-11T14:12:28;1.94;;;1.94;;
70450;SDS011;58869;51.982;4.450;2022-07-11T14:14:54;1.86;;;1.86;;
70450;SDS011;58869;51.982;4.450;2022-07-11T14:17:20;1.63;;;1.63;;
70450;SDS011;58869;51.982;4.450;2022-07-11T14:19:46;1.71;;;1.71;;
70450;SDS011;58869;51.982;4.450;2022-07-11T14:22:11;1.49;;;1.49;;
70450;SDS011;58869;51.982;4.450;2022-07-11T14:24:37;1.68;;;1.68;;
70450;SDS011;58869;51.982;4.450;2022-07-11T14:27:02;1.70;;;1.70;;
70450;SDS011;58869;51.982;4.450;2022-07-11T14:29:29;1.51;;;1.51;;
70450;SDS011;58869;51.982;4.450;2022-07-11T14:31:56;1.76;;;1.76;;
70450;SDS011;58869;51.982;4.450;2022-07-11T14:34:23;1.85;;;1.85;;
70450;SDS011;58869;51.982;4.450;2022-07-11T14:36:49;1.90;;;1.90;;
70450;SDS011;58869;51.982;4.450;2022-07-11T14:39:14;1.79;;;1.79;;
70450;SDS011;58869;51.982;4.450;2022-07-11T14:41:41;2.30;;;2.30;;
70450;SDS011;58869;51.982;4.450;2022-07-11T14:44:07;2.33;;;2.33;;
70450;SDS011;58869;51.982;4.450;2022-07-11T14:46:32;2.69;;;2.69;;
70450;SDS011;58869;51.982;4.450;2022-07-11T14:48:58;2.72;;;2.72;;
70450;SDS011;58869;51.982;4.450;2022-07-11T14:51:24;2.70;;;2.70;;
70450;SDS011;58869;51.982;4.450;2022-07-11T14:53:52;2.51;;;2.51;;
70450;SDS011;58869;51.982;4.450;2022-07-11T14:56:19;2.38;;;2.38;;
70450;SDS011;58869;51.982;4.450;2022-07-11T14:58:44;2.20;;;2.20;;
70450;SDS011;58869;51.982;4.450;2022-07-11T15:01:09;2.60;;;2.60;;
70450;SDS011;58869;51.982;4.450;2022-07-11T15:03:35;2.82;;;2.82;;
70450;SDS011;58869;51.982;4.450;2022-07-11T15:06:04;3.00;;;3.00;;
70450;SDS011;58869;51.982;4.450;2022-07-11T15:08:30;3.02;;;3.02;;
70450;SDS011;58869;51.982;4.450;2022-07-11T15:11:15;2.46;;;2.46;;
70450;SDS011;58869;51.982;4.450;2022-07-11T15:13:59;2.85;;;2.85;;
70450;SDS011;58869;51.982;4.450;2022-07-11T15:16:24;2.97;;;2.97;;
70450;SDS011;58869;51.982;4.450;2022-07-11T15:18:51;2.75;;;2.75;;